createdAt,value
2022-10-01T00:02:37.934Z,68.82
2022-10-01T00:06:07.715Z,68.71
2022-10-01T00:09:35.438Z,68.65
2022-10-01T00:13:02.415Z,68.76
2022-10-01T00:16:31.365Z,68.67
2022-10-01T00:19:58.461Z,68.99
2022-10-01T00:23:25.921Z,68.98
2022-10-01T00:26:53.426Z,68.75
2022-10-01T00:30:21.806Z,68.58
2022-10-01T00:33:49.079Z,68.81
2022-10-01T00:37:19.196Z,68.47
2022-10-01T00:40:45.680Z,68.59
2022-10-01T00:44:38.878Z,68.53
2022-10-01T00:48:06.117Z,68.52
2022-10-01T00:51:38.740Z,68.38
2022-10-01T00:55:09.899Z,68.56
2022-10-01T00:58:37.313Z,68.45
2022-10-01T01:02:08.716Z,68.80
2022-10-01T01:05:36.186Z,68.53
2022-10-01T01:09:03.737Z,68.83
2022-10-01T01:12:52.517Z,69.02
2022-10-01T01:16:28.144Z,68.83
2022-10-01T01:20:19.438Z,68.76
2022-10-01T01:24:08.055Z,69.14
2022-10-01T01:27:42.631Z,68.77
2022-10-01T01:31:14.953Z,69.08
2022-10-01T01:34:46.216Z,68.99
2022-10-01T01:38:17.550Z,68.90
2022-10-01T01:41:50.506Z,69.22
2022-10-01T01:45:24.274Z,69.02
2022-10-01T01:48:54.282Z,69.20
2022-10-01T01:52:21.778Z,69.27
2022-10-01T01:55:50.709Z,69.42
2022-10-01T01:59:19.807Z,69.43
2022-10-01T02:02:51.957Z,69.61
2022-10-01T02:06:30.201Z,69.63
2022-10-01T02:10:07.326Z,69.79
2022-10-01T02:13:44.891Z,69.97
2022-10-01T02:17:18.326Z,70.23
2022-10-01T02:20:51.714Z,70.02
2022-10-01T02:24:29.138Z,70.35
2022-10-01T02:28:07.964Z,70.20
2022-10-01T02:31:38.162Z,70.33
2022-10-01T02:35:08.187Z,70.22
2022-10-01T02:38:37.943Z,69.98
2022-10-01T02:42:08.352Z,69.89
2022-10-01T02:45:38.039Z,70.28
2022-10-01T02:49:05.877Z,69.79
2022-10-01T02:52:40.202Z,69.74
2022-10-01T02:56:09.781Z,69.67
2022-10-01T02:59:36.509Z,69.69
2022-10-01T03:03:03.309Z,69.38
2022-10-01T03:06:29.904Z,69.75
2022-10-01T03:09:56.977Z,69.56
2022-10-01T03:13:25.511Z,69.79
2022-10-01T03:16:53.018Z,69.54
2022-10-01T03:20:20.184Z,69.70
2022-10-01T03:23:47.083Z,70.09
2022-10-01T03:27:13.968Z,69.91
2022-10-01T03:30:40.815Z,69.88
2022-10-01T03:34:07.980Z,69.84
2022-10-01T03:37:34.577Z,70.00
2022-10-01T03:41:01.733Z,69.82
2022-10-01T03:44:28.690Z,70.05
2022-10-01T03:47:58.249Z,69.94
2022-10-01T03:51:25.060Z,69.69
2022-10-01T03:54:52.000Z,69.98
2022-10-01T03:58:19.972Z,69.29
2022-10-01T04:01:47.268Z,69.73
2022-10-01T04:05:15.013Z,69.77
2022-10-01T04:08:42.935Z,69.77
2022-10-01T04:12:11.193Z,70.00
2022-10-01T04:15:38.066Z,69.97
2022-10-01T04:19:05.204Z,69.81
2022-10-01T04:22:32.286Z,70.03
2022-10-01T04:26:02.766Z,69.65
2022-10-01T04:29:30.109Z,69.99
2022-10-01T04:32:57.287Z,70.10
2022-10-01T04:36:24.464Z,70.15
2022-10-01T04:39:51.399Z,70.10
2022-10-01T04:43:18.402Z,70.05
2022-10-01T04:46:45.183Z,69.83
2022-10-01T04:50:12.781Z,69.73
2022-10-01T04:53:39.920Z,69.77
2022-10-01T04:57:07.145Z,69.85
2022-10-01T05:00:34.439Z,69.87
2022-10-01T05:04:01.309Z,69.92
2022-10-01T05:07:28.185Z,69.87
2022-10-01T05:10:55.088Z,69.98
2022-10-01T05:14:27.060Z,70.07
2022-10-01T05:17:54.134Z,69.93
2022-10-01T05:21:21.252Z,70.19
2022-10-01T05:24:49.328Z,70.33
2022-10-01T05:28:21.426Z,70.58
2022-10-01T05:31:50.477Z,70.73
2022-10-01T05:35:17.099Z,70.68
2022-10-01T05:38:44.094Z,70.81
2022-10-01T05:42:10.794Z,70.77
2022-10-01T05:45:38.436Z,70.79
2022-10-01T05:49:07.353Z,70.86
2022-10-01T05:52:37.033Z,70.85
2022-10-01T05:56:04.082Z,70.99
2022-10-01T05:59:31.957Z,70.84
2022-10-01T06:03:00.115Z,70.90
2022-10-01T06:06:28.061Z,71.13
2022-10-01T06:09:55.010Z,71.08
2022-10-01T06:13:21.956Z,71.07
2022-10-01T06:16:48.642Z,71.22
2022-10-01T06:20:18.628Z,71.47
2022-10-01T06:23:46.547Z,71.46
2022-10-01T06:27:13.619Z,71.39
2022-10-01T06:30:42.559Z,71.27
2022-10-01T06:34:09.580Z,71.30
2022-10-01T06:37:40.007Z,71.70
2022-10-01T06:41:07.440Z,71.64
2022-10-01T06:44:34.260Z,71.84
2022-10-01T06:48:03.286Z,71.95
2022-10-01T06:51:44.139Z,72.06
2022-10-01T06:55:16.507Z,71.95
2022-10-01T06:58:44.110Z,72.20
2022-10-01T07:02:21.780Z,72.19
2022-10-01T07:05:49.275Z,72.38
2022-10-01T07:09:15.708Z,72.34
2022-10-01T07:12:43.258Z,72.45
2022-10-01T07:16:10.441Z,72.17
2022-10-01T07:19:37.408Z,72.51
2022-10-01T07:23:04.676Z,72.51
2022-10-01T07:26:31.327Z,72.45
2022-10-01T07:29:59.366Z,72.41
2022-10-01T07:33:26.244Z,72.62
2022-10-01T07:36:54.574Z,72.54
2022-10-01T07:40:22.088Z,72.52
2022-10-01T07:43:50.069Z,72.80
2022-10-01T07:47:16.646Z,72.77
2022-10-01T07:50:49.821Z,72.81
2022-10-01T07:54:17.580Z,73.08
2022-10-01T07:57:43.954Z,72.86
2022-10-01T08:01:10.792Z,72.80
2022-10-01T08:04:55.308Z,72.91
2022-10-01T08:08:24.486Z,73.07
2022-10-01T08:11:51.604Z,72.97
2022-10-01T08:15:20.587Z,73.06
2022-10-01T08:18:49.107Z,72.99
2022-10-01T08:22:15.808Z,72.88
2022-10-01T08:25:46.168Z,72.86
2022-10-01T08:29:16.938Z,72.87
2022-10-01T08:32:44.089Z,72.87
2022-10-01T08:36:12.255Z,73.00
2022-10-01T08:39:39.764Z,72.84
2022-10-01T08:43:11.323Z,72.73
2022-10-01T08:46:39.529Z,72.49
2022-10-01T08:50:14.605Z,72.58
2022-10-01T08:53:46.060Z,72.53
2022-10-01T08:57:19.668Z,72.44
2022-10-01T09:00:49.612Z,72.65
2022-10-01T09:04:16.758Z,72.37
2022-10-01T09:08:08.705Z,72.38
2022-10-01T09:11:45.920Z,72.26
2022-10-01T09:15:33.295Z,72.14
2022-10-01T09:19:10.853Z,71.80
2022-10-01T09:22:42.768Z,71.64
2022-10-01T09:26:13.975Z,71.63
2022-10-01T09:29:46.323Z,71.29
2022-10-01T09:33:18.913Z,71.31
2022-10-01T09:36:59.719Z,71.23
2022-10-01T09:40:37.431Z,71.11
2022-10-01T09:44:04.628Z,71.08
2022-10-01T09:47:36.700Z,70.93
2022-10-01T09:51:10.616Z,70.98
2022-10-01T09:54:46.277Z,70.60
2022-10-01T09:58:18.047Z,70.24
2022-10-01T10:01:48.289Z,70.14
2022-10-01T10:05:18.294Z,69.85
2022-10-01T10:08:48.800Z,69.68
2022-10-01T10:12:31.447Z,69.52
2022-10-01T10:16:00.067Z,69.26
2022-10-01T10:19:29.666Z,69.02
2022-10-01T10:23:06.993Z,68.91
2022-10-01T10:26:39.374Z,68.80
2022-10-01T10:30:15.626Z,68.65
2022-10-01T10:33:55.759Z,68.43
2022-10-01T10:37:32.906Z,68.24
2022-10-01T10:41:00.423Z,68.06
2022-10-01T10:44:36.415Z,67.89
2022-10-01T10:48:06.960Z,67.74
2022-10-01T10:51:46.097Z,67.67
2022-10-01T10:55:30.412Z,67.64
2022-10-01T10:59:08.552Z,67.44
2022-10-01T11:02:35.879Z,67.15
2022-10-01T11:06:11.568Z,66.83
2022-10-01T11:10:00.734Z,66.73
2022-10-01T11:13:43.401Z,66.61
2022-10-01T11:17:27.421Z,66.56
2022-10-01T11:21:05.530Z,66.30
2022-10-01T11:24:53.477Z,66.12
2022-10-01T11:28:35.100Z,66.00
2022-10-01T11:32:12.357Z,65.99
2022-10-01T11:35:55.607Z,65.71
2022-10-01T11:39:26.184Z,65.62
2022-10-01T11:42:58.777Z,65.55
2022-10-01T11:46:50.414Z,65.58
2022-10-01T11:50:22.150Z,65.48
2022-10-01T11:53:53.217Z,65.32
2022-10-01T11:57:38.645Z,65.09
2022-10-01T12:01:12.529Z,64.88
2022-10-01T12:04:43.657Z,65.10
2022-10-01T12:08:19.092Z,65.02
2022-10-01T12:11:56.217Z,64.85
2022-10-01T12:15:30.022Z,64.67
2022-10-01T12:19:03.677Z,64.53
2022-10-01T12:22:31.345Z,64.48
2022-10-01T12:26:06.645Z,64.45
2022-10-01T12:29:42.168Z,64.52
2022-10-01T12:33:32.560Z,64.42
2022-10-01T12:37:14.197Z,64.32
2022-10-01T12:40:48.083Z,64.08
2022-10-01T12:44:44.760Z,64.10
2022-10-01T12:48:19.198Z,63.84
2022-10-01T12:51:49.064Z,63.85
2022-10-01T12:55:50.369Z,63.85
2022-10-01T12:59:41.184Z,63.99
2022-10-01T13:03:37.112Z,63.99
2022-10-01T13:07:20.907Z,63.88
2022-10-01T13:11:02.604Z,64.05
2022-10-01T13:14:33.464Z,63.91
2022-10-01T13:18:07.846Z,63.91
2022-10-01T13:21:49.486Z,63.71
2022-10-01T13:25:31.906Z,63.81
2022-10-01T13:29:17.518Z,63.78
2022-10-01T13:32:58.207Z,63.76
2022-10-01T13:36:37.743Z,63.83
2022-10-01T13:40:22.471Z,63.42
2022-10-01T13:43:57.034Z,63.37
2022-10-01T13:47:25.693Z,63.47
2022-10-01T13:51:05.357Z,63.13
2022-10-01T13:54:44.232Z,62.96
2022-10-01T13:58:25.520Z,62.90
2022-10-01T14:01:52.211Z,62.50
2022-10-01T14:05:35.406Z,62.50
2022-10-01T14:09:12.141Z,62.66
2022-10-01T14:13:01.378Z,62.40
2022-10-01T14:16:33.811Z,62.56
2022-10-01T14:20:02.634Z,62.60
2022-10-01T14:23:38.694Z,62.63
2022-10-01T14:27:14.886Z,62.70
2022-10-01T14:30:52.868Z,62.66
2022-10-01T14:34:35.276Z,62.69
2022-10-01T14:38:13.833Z,62.65
2022-10-01T14:41:51.859Z,62.80
2022-10-01T14:45:22.105Z,62.91
2022-10-01T14:49:00.987Z,62.84
2022-10-01T14:52:34.359Z,62.95
2022-10-01T14:56:07.482Z,63.05
2022-10-01T14:59:42.007Z,63.06
2022-10-01T15:03:16.034Z,63.10
2022-10-01T15:06:47.506Z,63.01
2022-10-01T15:10:21.404Z,63.23
2022-10-01T15:13:52.050Z,63.35
2022-10-01T15:17:25.104Z,63.32
2022-10-01T15:21:05.803Z,63.33
2022-10-01T15:24:42.918Z,63.46
2022-10-01T15:28:31.163Z,63.45
2022-10-01T15:32:21.465Z,63.53
2022-10-01T15:35:55.397Z,63.50
2022-10-01T15:39:34.940Z,63.67
2022-10-01T15:43:35.798Z,63.65
2022-10-01T15:47:36.096Z,63.87
2022-10-01T15:51:07.447Z,64.03
2022-10-01T15:54:43.116Z,64.02
2022-10-01T15:58:23.488Z,64.15
2022-10-01T16:01:50.010Z,64.32
2022-10-01T16:05:21.625Z,64.36
2022-10-01T16:09:05.565Z,64.38
2022-10-01T16:12:33.402Z,64.58
2022-10-01T16:16:23.073Z,64.51
2022-10-01T16:19:52.103Z,64.49
2022-10-01T16:23:42.406Z,64.67
2022-10-01T16:27:20.524Z,64.72
2022-10-01T16:30:53.686Z,64.93
2022-10-01T16:34:25.360Z,64.90
2022-10-01T16:37:54.581Z,65.04
2022-10-01T16:41:27.813Z,64.75
2022-10-01T16:44:57.222Z,64.39
2022-10-01T16:48:27.728Z,64.61
2022-10-01T16:51:59.582Z,64.98
2022-10-01T16:55:30.865Z,65.42
2022-10-01T16:58:58.937Z,65.63
2022-10-01T17:02:25.702Z,65.87
2022-10-01T17:05:59.942Z,66.08
2022-10-01T17:09:33.500Z,66.33
2022-10-01T17:13:02.805Z,66.33
2022-10-01T17:16:32.671Z,66.39
2022-10-01T17:20:04.186Z,66.77
2022-10-01T17:23:31.469Z,66.99
2022-10-01T17:26:58.443Z,66.77
2022-10-01T17:30:26.470Z,66.74
2022-10-01T17:34:01.202Z,67.02
2022-10-01T17:37:29.172Z,67.13
2022-10-01T17:40:57.007Z,67.06
2022-10-01T17:44:27.271Z,67.30
2022-10-01T17:47:55.706Z,67.29
2022-10-01T17:51:24.114Z,67.24
2022-10-01T17:54:51.125Z,67.11
2022-10-01T17:58:25.409Z,67.43
2022-10-01T18:01:53.882Z,67.53
2022-10-01T18:05:20.901Z,67.68
2022-10-01T18:08:56.889Z,67.56
2022-10-01T18:12:27.596Z,67.82
2022-10-01T18:16:03.970Z,67.95
2022-10-01T18:23:19.575Z,68.08
2022-10-01T18:26:47.749Z,68.31
2022-10-01T18:30:15.956Z,68.46
2022-10-01T18:33:47.365Z,68.40
2022-10-01T18:37:30.364Z,68.47
2022-10-01T18:41:06.018Z,68.54
2022-10-01T18:44:33.156Z,68.80
2022-10-01T18:48:16.749Z,68.68
2022-10-01T18:51:52.637Z,68.92
2022-10-01T18:55:48.024Z,68.98
2022-10-01T18:59:43.987Z,68.97
2022-10-01T19:03:36.138Z,68.87
2022-10-01T19:07:23.475Z,69.20
2022-10-01T19:10:58.808Z,69.07
2022-10-01T19:14:48.393Z,69.02
2022-10-01T19:18:42.251Z,69.22
2022-10-01T19:22:19.166Z,69.37
2022-10-01T19:25:56.159Z,69.26
2022-10-01T19:29:40.248Z,69.58
2022-10-01T19:33:11.018Z,69.70
2022-10-01T19:36:45.448Z,69.72
2022-10-01T19:40:22.492Z,69.70
2022-10-01T19:43:55.084Z,70.02
2022-10-01T19:47:31.120Z,70.07
2022-10-01T19:51:03.901Z,69.96
2022-10-01T19:54:34.627Z,70.11
2022-10-01T19:58:03.736Z,70.29
2022-10-01T20:01:40.340Z,70.29
2022-10-01T20:05:11.716Z,70.12
2022-10-01T20:08:47.264Z,70.32
2022-10-01T20:12:27.227Z,70.48
2022-10-01T20:16:03.019Z,70.55
2022-10-01T20:19:41.022Z,70.61
2022-10-01T20:23:29.004Z,70.49
2022-10-01T20:27:15.371Z,70.81
2022-10-01T20:30:51.192Z,70.78
2022-10-01T20:34:29.651Z,71.03
2022-10-01T20:38:15.120Z,70.91
2022-10-01T20:41:47.045Z,71.19
2022-10-01T20:45:21.642Z,71.15
2022-10-01T20:48:53.157Z,71.04
2022-10-01T20:52:29.248Z,71.06
2022-10-01T20:56:06.343Z,71.28
2022-10-01T20:59:40.245Z,71.19
2022-10-01T21:03:16.953Z,71.31
2022-10-01T21:06:48.161Z,71.50
2022-10-01T21:10:24.500Z,71.58
2022-10-01T21:13:59.288Z,71.73
2022-10-01T21:17:42.847Z,71.65
2022-10-01T21:21:19.687Z,71.70
2022-10-01T21:25:05.152Z,71.95
2022-10-01T21:28:48.687Z,72.06
2022-10-01T21:32:29.231Z,71.95
2022-10-01T21:36:04.059Z,72.24
2022-10-01T21:39:38.468Z,72.15
2022-10-01T21:43:15.563Z,72.31
2022-10-01T21:46:51.397Z,72.23
2022-10-01T21:50:35.884Z,72.46
2022-10-01T21:54:21.385Z,72.51
2022-10-01T21:58:18.514Z,72.54
2022-10-01T22:01:56.574Z,72.56
2022-10-01T22:05:30.461Z,72.60
2022-10-01T22:09:09.713Z,72.66
2022-10-01T22:12:40.532Z,72.66
2022-10-01T22:16:12.490Z,72.59
2022-10-01T22:19:44.454Z,72.62
2022-10-01T22:23:13.985Z,72.91
2022-10-01T22:26:47.275Z,72.82
2022-10-01T22:30:18.215Z,73.04
2022-10-01T22:33:54.197Z,73.06
2022-10-01T22:37:24.756Z,73.14
2022-10-01T22:40:56.188Z,72.94
2022-10-01T22:44:24.400Z,73.13
2022-10-01T22:48:09.193Z,73.05
2022-10-01T22:51:57.313Z,73.20
2022-10-01T22:55:32.270Z,73.24
2022-10-01T22:59:10.955Z,73.27
2022-10-01T23:02:44.427Z,73.38
2022-10-01T23:06:21.009Z,73.42
2022-10-01T23:09:55.967Z,73.34
2022-10-01T23:13:33.568Z,73.38
2022-10-01T23:17:09.777Z,73.54
2022-10-01T23:20:45.326Z,73.53
2022-10-01T23:24:24.402Z,73.83
2022-10-01T23:28:09.999Z,73.41
2022-10-01T23:31:41.978Z,73.64
2022-10-01T23:35:18.261Z,73.60
2022-10-01T23:39:10.213Z,73.55
2022-10-01T23:42:46.612Z,73.75
2022-10-01T23:46:17.869Z,73.68
2022-10-01T23:49:51.280Z,73.72
2022-10-01T23:53:22.910Z,73.80
2022-10-01T23:56:54.537Z,73.79
